Terminal Aerodrome Forecast
Issued by NWS

Home | Current Version | Previous Version | Text Only | Print | Product List | Glossary On
Versions: 1 2 3 4 5 6 7 8 9 10 11 12 13 14 15 16 17 18
000
FTUS44 KTSA 030500
TAFMLC
TAF
KMLC 030525Z 0306/0406 18007KT P6SM OVC004
      TEMPO 0308/0312 1SM BR OVC001
     FM031200 19011KT 3SM BR OVC005
     FM031800 21008G17KT 4SM BR OVC015 PROB30 0318/0324 2SM -RA BR
      OVC004
     FM040000 33006KT 4SM BR OVC015 PROB30 0400/0406 2SM -RA BR
      OVC005=

USA.gov is the U.S. government's official web portal to all federal, state and local government web resources and services.